Terminal Aerodrome Forecast
Issued by NWS

Current Version | Previous Version | Text Only | Print | Product List | Glossary On
Versions: 1 2 3 4 5 6 7 8 9 10 11 12 13 14
000
FTAK31 PAJN 281100
TAFAPG
TAF
PAPG 281137Z 2812/2912 VRB05KT P6SM VCSH OVC040
     FM281600 05005KT 5SM -SN BR SCT007 SCT015 OVC030
     FM281900 10008KT 4SM -SNRA SCT007 OVC012
     FM282300 10010KT 5SM -RA OVC008 WS020/15040KT
     FM290900 12006KT 6SM -RA SCT008 OVC020
      AMD LTD TO CLD VIS AND WIND 2812/2815=

USA.gov is the U.S. government's official web portal to all federal, state and local government web resources and services.